sensor_id;sensor_type;location;lat;lon;timestamp;P1;durP1;ratioP1;P2;durP2;ratioP2
41514;SDS011;27247;48.020;16.720;2022-07-17T00:00:56;2.13;;;1.63;;
41514;SDS011;27247;48.020;16.720;2022-07-17T00:05:06;6.03;;;2.27;;
41514;SDS011;27247;48.020;16.720;2022-07-17T00:09:17;6.95;;;1.73;;
41514;SDS011;27247;48.020;16.720;2022-07-17T00:13:27;4.95;;;1.98;;
41514;SDS011;27247;48.020;16.720;2022-07-17T00:17:37;2.78;;;1.65;;
41514;SDS011;27247;48.020;16.720;2022-07-17T00:21:48;2.58;;;1.77;;
41514;SDS011;27247;48.020;16.720;2022-07-17T00:25:59;4.63;;;2.03;;
41514;SDS011;27247;48.020;16.720;2022-07-17T00:30:10;2.55;;;2.10;;
41514;SDS011;27247;48.020;16.720;2022-07-17T00:34:22;5.10;;;2.13;;
41514;SDS011;27247;48.020;16.720;2022-07-17T00:38:33;2.77;;;1.97;;
41514;SDS011;27247;48.020;16.720;2022-07-17T00:42:43;4.18;;;2.10;;
41514;SDS011;27247;48.020;16.720;2022-07-17T00:46:53;3.00;;;2.00;;
41514;SDS011;27247;48.020;16.720;2022-07-17T00:51:04;2.72;;;2.10;;
41514;SDS011;27247;48.020;16.720;2022-07-17T00:55:14;2.05;;;1.85;;
41514;SDS011;27247;48.020;16.720;2022-07-17T00:59:26;3.47;;;1.95;;
41514;SDS011;27247;48.020;16.720;2022-07-17T01:03:38;4.30;;;2.05;;
41514;SDS011;27247;48.020;16.720;2022-07-17T01:07:49;5.10;;;2.17;;
41514;SDS011;27247;48.020;16.720;2022-07-17T01:12:00;4.18;;;1.90;;
41514;SDS011;27247;48.020;16.720;2022-07-17T01:16:11;2.17;;;1.80;;
41514;SDS011;27247;48.020;16.720;2022-07-17T01:20:21;4.93;;;1.95;;
41514;SDS011;27247;48.020;16.720;2022-07-17T01:24:32;4.43;;;2.10;;
41514;SDS011;27247;48.020;16.720;2022-07-17T01:28:42;2.20;;;1.98;;
41514;SDS011;27247;48.020;16.720;2022-07-17T01:32:53;2.80;;;2.20;;
41514;SDS011;27247;48.020;16.720;2022-07-17T01:37:03;7.65;;;2.30;;
41514;SDS011;27247;48.020;16.720;2022-07-17T01:41:13;4.67;;;2.63;;
41514;SDS011;27247;48.020;16.720;2022-07-17T01:45:24;3.00;;;2.23;;
41514;SDS011;27247;48.020;16.720;2022-07-17T01:49:34;3.20;;;2.33;;
41514;SDS011;27247;48.020;16.720;2022-07-17T01:53:44;4.83;;;2.47;;
41514;SDS011;27247;48.020;16.720;2022-07-17T01:57:55;7.03;;;2.70;;
41514;SDS011;27247;48.020;16.720;2022-07-17T02:02:05;3.57;;;2.20;;
41514;SDS011;27247;48.020;16.720;2022-07-17T02:06:16;3.38;;;2.40;;
41514;SDS011;27247;48.020;16.720;2022-07-17T02:10:27;3.45;;;2.10;;
41514;SDS011;27247;48.020;16.720;2022-07-17T02:14:37;6.63;;;2.55;;
41514;SDS011;27247;48.020;16.720;2022-07-17T02:18:47;4.97;;;2.50;;
41514;SDS011;27247;48.020;16.720;2022-07-17T02:22:58;2.90;;;1.83;;
41514;SDS011;27247;48.020;16.720;2022-07-17T02:27:08;3.43;;;2.40;;
41514;SDS011;27247;48.020;16.720;2022-07-17T02:31:18;3.67;;;2.30;;
41514;SDS011;27247;48.020;16.720;2022-07-17T02:35:29;4.10;;;2.42;;
41514;SDS011;27247;48.020;16.720;2022-07-17T02:39:39;6.80;;;2.33;;
41514;SDS011;27247;48.020;16.720;2022-07-17T02:44:02;4.53;;;2.30;;
41514;SDS011;27247;48.020;16.720;2022-07-17T02:48:12;5.03;;;2.47;;
41514;SDS011;27247;48.020;16.720;2022-07-17T02:52:22;3.27;;;2.03;;
41514;SDS011;27247;48.020;16.720;2022-07-17T02:56:33;4.93;;;2.30;;
41514;SDS011;27247;48.020;16.720;2022-07-17T03:00:43;4.43;;;2.33;;
41514;SDS011;27247;48.020;16.720;2022-07-17T03:04:54;6.15;;;2.58;;
41514;SDS011;27247;48.020;16.720;2022-07-17T03:09:04;10.13;;;2.67;;
41514;SDS011;27247;48.020;16.720;2022-07-17T03:13:14;3.37;;;2.07;;
41514;SDS011;27247;48.020;16.720;2022-07-17T03:17:25;5.07;;;2.50;;
41514;SDS011;27247;48.020;16.720;2022-07-17T03:21:35;4.50;;;2.45;;
41514;SDS011;27247;48.020;16.720;2022-07-17T03:25:45;7.00;;;2.77;;
41514;SDS011;27247;48.020;16.720;2022-07-17T03:29:55;3.80;;;2.42;;
41514;SDS011;27247;48.020;16.720;2022-07-17T03:34:06;3.60;;;2.70;;
41514;SDS011;27247;48.020;16.720;2022-07-17T03:38:16;4.27;;;2.60;;
41514;SDS011;27247;48.020;16.720;2022-07-17T03:42:26;3.10;;;2.53;;
41514;SDS011;27247;48.020;16.720;2022-07-17T03:46:37;6.47;;;2.77;;
41514;SDS011;27247;48.020;16.720;2022-07-17T03:50:47;3.83;;;2.50;;
41514;SDS011;27247;48.020;16.720;2022-07-17T03:54:58;3.63;;;2.40;;
41514;SDS011;27247;48.020;16.720;2022-07-17T03:59:08;5.00;;;2.20;;
41514;SDS011;27247;48.020;16.720;2022-07-17T04:03:18;3.17;;;2.27;;
41514;SDS011;27247;48.020;16.720;2022-07-17T04:07:29;5.33;;;2.40;;
41514;SDS011;27247;48.020;16.720;2022-07-17T04:11:40;4.07;;;2.88;;
41514;SDS011;27247;48.020;16.720;2022-07-17T04:15:50;2.80;;;2.53;;
41514;SDS011;27247;48.020;16.720;2022-07-17T04:20:05;5.55;;;2.63;;
41514;SDS011;27247;48.020;16.720;2022-07-17T04:24:16;3.83;;;2.53;;
41514;SDS011;27247;48.020;16.720;2022-07-17T04:28:26;7.07;;;3.50;;
41514;SDS011;27247;48.020;16.720;2022-07-17T04:32:37;5.55;;;2.88;;
41514;SDS011;27247;48.020;16.720;2022-07-17T04:36:47;4.50;;;2.97;;
41514;SDS011;27247;48.020;16.720;2022-07-17T04:40:58;8.65;;;3.30;;
41514;SDS011;27247;48.020;16.720;2022-07-17T04:45:08;4.57;;;2.30;;
41514;SDS011;27247;48.020;16.720;2022-07-17T04:49:19;4.30;;;2.42;;
41514;SDS011;27247;48.020;16.720;2022-07-17T04:53:29;7.97;;;2.93;;
41514;SDS011;27247;48.020;16.720;2022-07-17T04:57:40;6.00;;;2.85;;
41514;SDS011;27247;48.020;16.720;2022-07-17T05:01:51;7.57;;;2.50;;
41514;SDS011;27247;48.020;16.720;2022-07-17T05:06:01;4.27;;;2.57;;
41514;SDS011;27247;48.020;16.720;2022-07-17T05:10:11;2.80;;;2.50;;
41514;SDS011;27247;48.020;16.720;2022-07-17T05:14:22;6.03;;;2.70;;
41514;SDS011;27247;48.020;16.720;2022-07-17T05:18:32;6.90;;;2.67;;
41514;SDS011;27247;48.020;16.720;2022-07-17T05:22:43;5.97;;;2.27;;
41514;SDS011;27247;48.020;16.720;2022-07-17T05:26:53;2.97;;;2.47;;
41514;SDS011;27247;48.020;16.720;2022-07-17T05:31:04;4.05;;;1.90;;
41514;SDS011;27247;48.020;16.720;2022-07-17T05:35:15;7.20;;;2.60;;
41514;SDS011;27247;48.020;16.720;2022-07-17T05:39:25;4.07;;;1.90;;
41514;SDS011;27247;48.020;16.720;2022-07-17T05:43:36;6.30;;;1.90;;
41514;SDS011;27247;48.020;16.720;2022-07-17T05:47:46;2.75;;;1.80;;
41514;SDS011;27247;48.020;16.720;2022-07-17T05:51:56;1.80;;;1.60;;
41514;SDS011;27247;48.020;16.720;2022-07-17T05:56:06;1.80;;;1.70;;
41514;SDS011;27247;48.020;16.720;2022-07-17T06:00:17;3.90;;;2.10;;
41514;SDS011;27247;48.020;16.720;2022-07-17T06:04:28;4.10;;;1.80;;
41514;SDS011;27247;48.020;16.720;2022-07-17T06:08:38;2.23;;;1.43;;
41514;SDS011;27247;48.020;16.720;2022-07-17T06:12:48;2.30;;;1.53;;
41514;SDS011;27247;48.020;16.720;2022-07-17T06:16:59;2.92;;;1.40;;
41514;SDS011;27247;48.020;16.720;2022-07-17T06:21:09;4.10;;;1.80;;
41514;SDS011;27247;48.020;16.720;2022-07-17T06:25:20;2.97;;;1.65;;
41514;SDS011;27247;48.020;16.720;2022-07-17T06:29:30;3.47;;;1.70;;
41514;SDS011;27247;48.020;16.720;2022-07-17T06:33:41;3.07;;;2.00;;
41514;SDS011;27247;48.020;16.720;2022-07-17T06:37:51;4.50;;;1.80;;
41514;SDS011;27247;48.020;16.720;2022-07-17T06:42:01;5.67;;;1.80;;
41514;SDS011;27247;48.020;16.720;2022-07-17T06:46:12;2.50;;;1.60;;
41514;SDS011;27247;48.020;16.720;2022-07-17T06:50:23;3.23;;;1.80;;
41514;SDS011;27247;48.020;16.720;2022-07-17T06:54:33;4.80;;;1.60;;
41514;SDS011;27247;48.020;16.720;2022-07-17T06:58:43;4.47;;;1.37;;
41514;SDS011;27247;48.020;16.720;2022-07-17T07:02:54;5.30;;;0.90;;
41514;SDS011;27247;48.020;16.720;2022-07-17T07:07:04;1.95;;;1.00;;
41514;SDS011;27247;48.020;16.720;2022-07-17T07:11:14;1.67;;;1.00;;
41514;SDS011;27247;48.020;16.720;2022-07-17T07:15:25;4.30;;;1.20;;
41514;SDS011;27247;48.020;16.720;2022-07-17T07:19:35;3.50;;;1.40;;
41514;SDS011;27247;48.020;16.720;2022-07-17T07:23:45;2.60;;;1.27;;
41514;SDS011;27247;48.020;16.720;2022-07-17T07:27:56;3.50;;;1.30;;
41514;SDS011;27247;48.020;16.720;2022-07-17T07:32:06;3.15;;;1.13;;
41514;SDS011;27247;48.020;16.720;2022-07-17T07:36:17;1.75;;;1.00;;
41514;SDS011;27247;48.020;16.720;2022-07-17T07:40:27;2.00;;;0.80;;
41514;SDS011;27247;48.020;16.720;2022-07-17T07:44:37;2.33;;;1.00;;
41514;SDS011;27247;48.020;16.720;2022-07-17T07:48:48;2.72;;;0.90;;
41514;SDS011;27247;48.020;16.720;2022-07-17T07:52:58;4.60;;;1.10;;
41514;SDS011;27247;48.020;16.720;2022-07-17T07:57:09;4.53;;;1.17;;
41514;SDS011;27247;48.020;16.720;2022-07-17T08:01:19;0.75;;;0.65;;
41514;SDS011;27247;48.020;16.720;2022-07-17T08:05:30;2.92;;;0.85;;
41514;SDS011;27247;48.020;16.720;2022-07-17T08:09:40;2.55;;;0.77;;
41514;SDS011;27247;48.020;16.720;2022-07-17T08:13:50;4.53;;;1.03;;
41514;SDS011;27247;48.020;16.720;2022-07-17T08:18:01;2.63;;;0.90;;
41514;SDS011;27247;48.020;16.720;2022-07-17T08:22:11;2.08;;;1.00;;
41514;SDS011;27247;48.020;16.720;2022-07-17T08:26:22;3.38;;;1.10;;
41514;SDS011;27247;48.020;16.720;2022-07-17T08:30:32;2.53;;;1.20;;
41514;SDS011;27247;48.020;16.720;2022-07-17T08:34:44;3.05;;;0.80;;
41514;SDS011;27247;48.020;16.720;2022-07-17T08:38:55;3.72;;;1.10;;
41514;SDS011;27247;48.020;16.720;2022-07-17T08:43:06;4.43;;;1.10;;
41514;SDS011;27247;48.020;16.720;2022-07-17T08:47:17;2.70;;;1.13;;
41514;SDS011;27247;48.020;16.720;2022-07-17T08:51:30;8.00;;;1.75;;
41514;SDS011;27247;48.020;16.720;2022-07-17T08:55:42;3.70;;;1.08;;
41514;SDS011;27247;48.020;16.720;2022-07-17T08:59:52;2.53;;;0.90;;
41514;SDS011;27247;48.020;16.720;2022-07-17T09:04:03;3.37;;;1.03;;
41514;SDS011;27247;48.020;16.720;2022-07-17T09:08:20;6.78;;;1.60;;
41514;SDS011;27247;48.020;16.720;2022-07-17T09:12:32;5.50;;;1.45;;
41514;SDS011;27247;48.020;16.720;2022-07-17T09:16:50;2.88;;;0.90;;
41514;SDS011;27247;48.020;16.720;2022-07-17T09:21:02;2.85;;;1.35;;
41514;SDS011;27247;48.020;16.720;2022-07-17T09:25:15;4.45;;;0.95;;
41514;SDS011;27247;48.020;16.720;2022-07-17T09:29:25;2.88;;;1.05;;
41514;SDS011;27247;48.020;16.720;2022-07-17T09:33:36;3.43;;;1.00;;
41514;SDS011;27247;48.020;16.720;2022-07-17T09:37:46;2.33;;;1.17;;
41514;SDS011;27247;48.020;16.720;2022-07-17T09:41:56;4.23;;;1.13;;
41514;SDS011;27247;48.020;16.720;2022-07-17T09:46:07;5.83;;;1.17;;
41514;SDS011;27247;48.020;16.720;2022-07-17T09:50:19;2.72;;;1.17;;
41514;SDS011;27247;48.020;16.720;2022-07-17T09:54:30;3.88;;;1.20;;
41514;SDS011;27247;48.020;16.720;2022-07-17T09:58:43;11.70;;;2.13;;
41514;SDS011;27247;48.020;16.720;2022-07-17T10:02:56;2.78;;;1.35;;
41514;SDS011;27247;48.020;16.720;2022-07-17T10:07:07;4.75;;;1.13;;
41514;SDS011;27247;48.020;16.720;2022-07-17T10:11:19;2.05;;;1.27;;
41514;SDS011;27247;48.020;16.720;2022-07-17T10:15:32;3.70;;;0.95;;
41514;SDS011;27247;48.020;16.720;2022-07-17T10:19:53;1.92;;;0.95;;
41514;SDS011;27247;48.020;16.720;2022-07-17T10:24:06;4.93;;;1.30;;
41514;SDS011;27247;48.020;16.720;2022-07-17T10:28:18;1.55;;;1.10;;
41514;SDS011;27247;48.020;16.720;2022-07-17T10:32:29;4.38;;;1.33;;
41514;SDS011;27247;48.020;16.720;2022-07-17T10:36:40;3.70;;;1.50;;
41514;SDS011;27247;48.020;16.720;2022-07-17T10:41:01;2.58;;;1.40;;
41514;SDS011;27247;48.020;16.720;2022-07-17T10:45:13;5.10;;;1.50;;
41514;SDS011;27247;48.020;16.720;2022-07-17T10:49:26;2.70;;;1.30;;
41514;SDS011;27247;48.020;16.720;2022-07-17T10:53:36;4.20;;;1.65;;
41514;SDS011;27247;48.020;16.720;2022-07-17T10:57:47;1.43;;;1.23;;
41514;SDS011;27247;48.020;16.720;2022-07-17T11:01:58;2.08;;;1.45;;
41514;SDS011;27247;48.020;16.720;2022-07-17T11:06:16;2.55;;;1.33;;
41514;SDS011;27247;48.020;16.720;2022-07-17T11:10:37;2.50;;;1.05;;
41514;SDS011;27247;48.020;16.720;2022-07-17T11:14:48;3.80;;;1.60;;
41514;SDS011;27247;48.020;16.720;2022-07-17T11:19:09;3.05;;;1.40;;
41514;SDS011;27247;48.020;16.720;2022-07-17T11:23:21;3.35;;;1.42;;
41514;SDS011;27247;48.020;16.720;2022-07-17T11:27:34;2.85;;;1.25;;
41514;SDS011;27247;48.020;16.720;2022-07-17T11:31:45;3.65;;;1.35;;
41514;SDS011;27247;48.020;16.720;2022-07-17T11:35:55;2.40;;;1.33;;
41514;SDS011;27247;48.020;16.720;2022-07-17T11:40:05;3.35;;;0.95;;
41514;SDS011;27247;48.020;16.720;2022-07-17T11:44:17;2.00;;;1.02;;
41514;SDS011;27247;48.020;16.720;2022-07-17T11:48:29;1.60;;;0.93;;
41514;SDS011;27247;48.020;16.720;2022-07-17T11:52:49;3.67;;;1.27;;
41514;SDS011;27247;48.020;16.720;2022-07-17T11:57:00;1.85;;;0.80;;
41514;SDS011;27247;48.020;16.720;2022-07-17T12:01:12;1.92;;;1.17;;
41514;SDS011;27247;48.020;16.720;2022-07-17T12:05:24;2.28;;;1.08;;
41514;SDS011;27247;48.020;16.720;2022-07-17T12:09:37;1.85;;;1.10;;
41514;SDS011;27247;48.020;16.720;2022-07-17T12:13:47;3.30;;;1.07;;
41514;SDS011;27247;48.020;16.720;2022-07-17T12:17:58;4.22;;;1.50;;
41514;SDS011;27247;48.020;16.720;2022-07-17T12:22:08;1.80;;;0.90;;
41514;SDS011;27247;48.020;16.720;2022-07-17T12:26:19;1.85;;;1.20;;
41514;SDS011;27247;48.020;16.720;2022-07-17T12:30:29;1.85;;;0.93;;
41514;SDS011;27247;48.020;16.720;2022-07-17T12:34:43;1.85;;;1.10;;
41514;SDS011;27247;48.020;16.720;2022-07-17T12:38:55;3.25;;;0.95;;
41514;SDS011;27247;48.020;16.720;2022-07-17T12:43:05;2.93;;;0.90;;
41514;SDS011;27247;48.020;16.720;2022-07-17T12:47:16;1.77;;;1.20;;
41514;SDS011;27247;48.020;16.720;2022-07-17T12:51:26;1.45;;;0.80;;
41514;SDS011;27247;48.020;16.720;2022-07-17T12:55:36;3.10;;;1.10;;
41514;SDS011;27247;48.020;16.720;2022-07-17T12:59:47;3.80;;;1.17;;
41514;SDS011;27247;48.020;16.720;2022-07-17T13:03:57;3.00;;;1.00;;
41514;SDS011;27247;48.020;16.720;2022-07-17T13:08:07;2.57;;;0.80;;
41514;SDS011;27247;48.020;16.720;2022-07-17T13:12:18;2.07;;;0.70;;
41514;SDS011;27247;48.020;16.720;2022-07-17T13:16:28;2.50;;;1.17;;
41514;SDS011;27247;48.020;16.720;2022-07-17T13:20:39;4.63;;;0.90;;
41514;SDS011;27247;48.020;16.720;2022-07-17T13:24:50;1.77;;;0.82;;
41514;SDS011;27247;48.020;16.720;2022-07-17T13:29:00;3.53;;;1.45;;
41514;SDS011;27247;48.020;16.720;2022-07-17T13:33:10;1.60;;;0.87;;
41514;SDS011;27247;48.020;16.720;2022-07-17T13:37:21;4.25;;;1.00;;
41514;SDS011;27247;48.020;16.720;2022-07-17T13:41:31;3.10;;;1.10;;
41514;SDS011;27247;48.020;16.720;2022-07-17T13:45:42;4.50;;;1.10;;
41514;SDS011;27247;48.020;16.720;2022-07-17T13:49:53;5.40;;;1.00;;
41514;SDS011;27247;48.020;16.720;2022-07-17T13:54:03;3.10;;;0.63;;
41514;SDS011;27247;48.020;16.720;2022-07-17T13:58:13;3.27;;;0.87;;
41514;SDS011;27247;48.020;16.720;2022-07-17T14:02:24;4.33;;;0.90;;
41514;SDS011;27247;48.020;16.720;2022-07-17T14:06:34;5.20;;;1.10;;
41514;SDS011;27247;48.020;16.720;2022-07-17T14:10:44;2.70;;;0.90;;
41514;SDS011;27247;48.020;16.720;2022-07-17T14:14:55;3.03;;;1.02;;
41514;SDS011;27247;48.020;16.720;2022-07-17T14:19:05;3.33;;;1.10;;
41514;SDS011;27247;48.020;16.720;2022-07-17T14:23:15;3.45;;;1.10;;
41514;SDS011;27247;48.020;16.720;2022-07-17T14:27:27;2.88;;;0.90;;
41514;SDS011;27247;48.020;16.720;2022-07-17T14:31:37;2.53;;;1.33;;
41514;SDS011;27247;48.020;16.720;2022-07-17T14:35:48;1.52;;;0.90;;
41514;SDS011;27247;48.020;16.720;2022-07-17T14:39:58;4.27;;;1.03;;
41514;SDS011;27247;48.020;16.720;2022-07-17T14:44:08;1.97;;;1.03;;
41514;SDS011;27247;48.020;16.720;2022-07-17T14:48:19;3.67;;;0.87;;
41514;SDS011;27247;48.020;16.720;2022-07-17T14:52:29;1.40;;;0.77;;
41514;SDS011;27247;48.020;16.720;2022-07-17T14:56:39;3.43;;;0.90;;
41514;SDS011;27247;48.020;16.720;2022-07-17T15:00:50;3.22;;;1.02;;
41514;SDS011;27247;48.020;16.720;2022-07-17T15:05:01;2.40;;;1.20;;
41514;SDS011;27247;48.020;16.720;2022-07-17T15:09:11;2.33;;;1.07;;
41514;SDS011;27247;48.020;16.720;2022-07-17T15:13:22;1.98;;;0.85;;
41514;SDS011;27247;48.020;16.720;2022-07-17T15:17:32;1.63;;;0.80;;
41514;SDS011;27247;48.020;16.720;2022-07-17T15:21:43;7.15;;;1.15;;
41514;SDS011;27247;48.020;16.720;2022-07-17T15:25:53;1.77;;;1.10;;
41514;SDS011;27247;48.020;16.720;2022-07-17T15:30:03;3.43;;;1.20;;
41514;SDS011;27247;48.020;16.720;2022-07-17T15:34:14;5.47;;;1.00;;
41514;SDS011;27247;48.020;16.720;2022-07-17T15:38:25;3.73;;;1.13;;
41514;SDS011;27247;48.020;16.720;2022-07-17T15:42:35;1.38;;;1.02;;
41514;SDS011;27247;48.020;16.720;2022-07-17T15:46:46;1.77;;;1.23;;
41514;SDS011;27247;48.020;16.720;2022-07-17T15:50:56;1.45;;;0.98;;
41514;SDS011;27247;48.020;16.720;2022-07-17T15:55:07;4.17;;;0.97;;
41514;SDS011;27247;48.020;16.720;2022-07-17T15:59:18;2.78;;;1.00;;
41514;SDS011;27247;48.020;16.720;2022-07-17T16:03:28;2.13;;;0.93;;
41514;SDS011;27247;48.020;16.720;2022-07-17T16:07:39;1.33;;;0.85;;
41514;SDS011;27247;48.020;16.720;2022-07-17T16:11:50;4.73;;;1.20;;
41514;SDS011;27247;48.020;16.720;2022-07-17T16:16:01;5.68;;;1.00;;
41514;SDS011;27247;48.020;16.720;2022-07-17T16:20:11;2.30;;;0.75;;
41514;SDS011;27247;48.020;16.720;2022-07-17T16:24:22;5.28;;;0.85;;
41514;SDS011;27247;48.020;16.720;2022-07-17T16:28:33;2.38;;;1.20;;
41514;SDS011;27247;48.020;16.720;2022-07-17T16:32:43;1.80;;;1.00;;
41514;SDS011;27247;48.020;16.720;2022-07-17T16:36:53;3.43;;;1.00;;
41514;SDS011;27247;48.020;16.720;2022-07-17T16:41:04;1.42;;;1.00;;
41514;SDS011;27247;48.020;16.720;2022-07-17T16:45:16;3.05;;;1.25;;
41514;SDS011;27247;48.020;16.720;2022-07-17T16:49:26;1.87;;;1.10;;
41514;SDS011;27247;48.020;16.720;2022-07-17T16:53:37;3.13;;;1.00;;
41514;SDS011;27247;48.020;16.720;2022-07-17T16:57:47;1.40;;;0.98;;
41514;SDS011;27247;48.020;16.720;2022-07-17T17:01:58;4.03;;;1.17;;
41514;SDS011;27247;48.020;16.720;2022-07-17T17:06:08;6.43;;;0.63;;
41514;SDS011;27247;48.020;16.720;2022-07-17T17:10:19;1.88;;;1.20;;
41514;SDS011;27247;48.020;16.720;2022-07-17T17:14:29;2.92;;;1.10;;
41514;SDS011;27247;48.020;16.720;2022-07-17T17:18:39;3.08;;;0.98;;
41514;SDS011;27247;48.020;16.720;2022-07-17T17:22:50;3.70;;;1.17;;
41514;SDS011;27247;48.020;16.720;2022-07-17T17:27:01;1.90;;;1.20;;
41514;SDS011;27247;48.020;16.720;2022-07-17T17:31:13;1.17;;;0.95;;
41514;SDS011;27247;48.020;16.720;2022-07-17T17:35:23;3.45;;;1.40;;
41514;SDS011;27247;48.020;16.720;2022-07-17T17:39:33;2.20;;;0.90;;
41514;SDS011;27247;48.020;16.720;2022-07-17T17:43:44;1.70;;;0.85;;
41514;SDS011;27247;48.020;16.720;2022-07-17T17:47:55;2.00;;;1.05;;
41514;SDS011;27247;48.020;16.720;2022-07-17T17:52:06;4.82;;;1.55;;
41514;SDS011;27247;48.020;16.720;2022-07-17T17:56:16;4.13;;;1.13;;
41514;SDS011;27247;48.020;16.720;2022-07-17T18:00:26;1.55;;;1.10;;
41514;SDS011;27247;48.020;16.720;2022-07-17T18:04:37;1.50;;;0.98;;
41514;SDS011;27247;48.020;16.720;2022-07-17T18:08:47;4.40;;;1.47;;
41514;SDS011;27247;48.020;16.720;2022-07-17T18:12:57;3.00;;;0.93;;
41514;SDS011;27247;48.020;16.720;2022-07-17T18:17:08;2.60;;;1.07;;
41514;SDS011;27247;48.020;16.720;2022-07-17T18:21:19;4.28;;;1.10;;
41514;SDS011;27247;48.020;16.720;2022-07-17T18:25:30;2.60;;;1.00;;
41514;SDS011;27247;48.020;16.720;2022-07-17T18:29:41;1.33;;;0.90;;
41514;SDS011;27247;48.020;16.720;2022-07-17T18:33:51;1.50;;;0.60;;
41514;SDS011;27247;48.020;16.720;2022-07-17T18:38:01;1.33;;;0.93;;
41514;SDS011;27247;48.020;16.720;2022-07-17T18:42:12;4.60;;;1.48;;
41514;SDS011;27247;48.020;16.720;2022-07-17T18:46:22;2.75;;;1.23;;
41514;SDS011;27247;48.020;16.720;2022-07-17T18:50:32;1.97;;;1.03;;
41514;SDS011;27247;48.020;16.720;2022-07-17T18:54:43;3.53;;;1.17;;
41514;SDS011;27247;48.020;16.720;2022-07-17T18:58:54;2.87;;;1.00;;
41514;SDS011;27247;48.020;16.720;2022-07-17T19:03:05;1.60;;;1.27;;
41514;SDS011;27247;48.020;16.720;2022-07-17T19:07:15;1.60;;;1.10;;
41514;SDS011;27247;48.020;16.720;2022-07-17T19:11:26;2.88;;;0.95;;
41514;SDS011;27247;48.020;16.720;2022-07-17T19:15:36;2.47;;;1.20;;
41514;SDS011;27247;48.020;16.720;2022-07-17T19:19:47;2.20;;;0.98;;
41514;SDS011;27247;48.020;16.720;2022-07-17T19:23:57;7.07;;;1.23;;
41514;SDS011;27247;48.020;16.720;2022-07-17T19:28:07;5.87;;;1.20;;
41514;SDS011;27247;48.020;16.720;2022-07-17T19:32:18;4.60;;;1.10;;
41514;SDS011;27247;48.020;16.720;2022-07-17T19:36:28;4.93;;;1.90;;
41514;SDS011;27247;48.020;16.720;2022-07-17T19:40:39;2.92;;;1.50;;
41514;SDS011;27247;48.020;16.720;2022-07-17T19:44:50;5.65;;;1.20;;
41514;SDS011;27247;48.020;16.720;2022-07-17T19:49:00;3.05;;;1.17;;
41514;SDS011;27247;48.020;16.720;2022-07-17T19:53:12;2.78;;;1.27;;
41514;SDS011;27247;48.020;16.720;2022-07-17T19:57:23;4.38;;;1.08;;
41514;SDS011;27247;48.020;16.720;2022-07-17T20:01:34;2.50;;;0.97;;
41514;SDS011;27247;48.020;16.720;2022-07-17T20:05:44;1.83;;;1.08;;
41514;SDS011;27247;48.020;16.720;2022-07-17T20:09:55;3.47;;;1.40;;
41514;SDS011;27247;48.020;16.720;2022-07-17T20:14:05;3.97;;;1.20;;
41514;SDS011;27247;48.020;16.720;2022-07-17T20:18:15;4.40;;;1.60;;
41514;SDS011;27247;48.020;16.720;2022-07-17T20:22:26;3.25;;;1.23;;
41514;SDS011;27247;48.020;16.720;2022-07-17T20:26:36;5.82;;;1.25;;
41514;SDS011;27247;48.020;16.720;2022-07-17T20:30:46;2.47;;;1.00;;
41514;SDS011;27247;48.020;16.720;2022-07-17T20:34:57;3.40;;;1.20;;
41514;SDS011;27247;48.020;16.720;2022-07-17T20:39:07;4.10;;;1.30;;
41514;SDS011;27247;48.020;16.720;2022-07-17T20:43:18;3.28;;;1.30;;
41514;SDS011;27247;48.020;16.720;2022-07-17T20:47:29;2.42;;;1.30;;
41514;SDS011;27247;48.020;16.720;2022-07-17T20:51:40;4.00;;;1.30;;
41514;SDS011;27247;48.020;16.720;2022-07-17T20:55:50;5.37;;;1.40;;
41514;SDS011;27247;48.020;16.720;2022-07-17T21:00:00;3.60;;;1.33;;
41514;SDS011;27247;48.020;16.720;2022-07-17T21:04:11;3.40;;;1.27;;
41514;SDS011;27247;48.020;16.720;2022-07-17T21:08:22;4.10;;;1.20;;
41514;SDS011;27247;48.020;16.720;2022-07-17T21:12:35;2.00;;;1.15;;
41514;SDS011;27247;48.020;16.720;2022-07-17T21:16:45;3.03;;;1.20;;
41514;SDS011;27247;48.020;16.720;2022-07-17T21:20:56;3.58;;;1.50;;
41514;SDS011;27247;48.020;16.720;2022-07-17T21:25:07;6.30;;;1.20;;
41514;SDS011;27247;48.020;16.720;2022-07-17T21:29:19;3.13;;;1.42;;
41514;SDS011;27247;48.020;16.720;2022-07-17T21:33:30;1.87;;;0.97;;
41514;SDS011;27247;48.020;16.720;2022-07-17T21:37:40;3.60;;;1.30;;
41514;SDS011;27247;48.020;16.720;2022-07-17T21:41:50;4.43;;;1.73;;
41514;SDS011;27247;48.020;16.720;2022-07-17T21:46:01;2.57;;;1.27;;
41514;SDS011;27247;48.020;16.720;2022-07-17T21:50:14;3.03;;;1.00;;
41514;SDS011;27247;48.020;16.720;2022-07-17T21:54:24;7.83;;;1.50;;
41514;SDS011;27247;48.020;16.720;2022-07-17T21:58:35;3.23;;;1.17;;
41514;SDS011;27247;48.020;16.720;2022-07-17T22:02:48;5.68;;;1.70;;
41514;SDS011;27247;48.020;16.720;2022-07-17T22:06:59;4.28;;;1.25;;
41514;SDS011;27247;48.020;16.720;2022-07-17T22:11:09;4.05;;;1.58;;
41514;SDS011;27247;48.020;16.720;2022-07-17T22:15:20;6.72;;;1.40;;
41514;SDS011;27247;48.020;16.720;2022-07-17T22:19:30;7.80;;;1.50;;
41514;SDS011;27247;48.020;16.720;2022-07-17T22:23:41;6.28;;;1.58;;
41514;SDS011;27247;48.020;16.720;2022-07-17T22:27:52;8.25;;;1.90;;
41514;SDS011;27247;48.020;16.720;2022-07-17T22:32:03;5.40;;;1.40;;
41514;SDS011;27247;48.020;16.720;2022-07-17T22:36:14;6.10;;;1.58;;
41514;SDS011;27247;48.020;16.720;2022-07-17T22:40:24;4.07;;;1.25;;
41514;SDS011;27247;48.020;16.720;2022-07-17T22:44:34;4.73;;;1.40;;
41514;SDS011;27247;48.020;16.720;2022-07-17T22:48:45;5.45;;;1.50;;
41514;SDS011;27247;48.020;16.720;2022-07-17T22:52:55;3.13;;;1.67;;
41514;SDS011;27247;48.020;16.720;2022-07-17T22:57:06;5.32;;;1.02;;
41514;SDS011;27247;48.020;16.720;2022-07-17T23:01:16;4.10;;;1.40;;
41514;SDS011;27247;48.020;16.720;2022-07-17T23:05:26;1.73;;;1.13;;
41514;SDS011;27247;48.020;16.720;2022-07-17T23:09:37;7.85;;;1.80;;
41514;SDS011;27247;48.020;16.720;2022-07-17T23:13:48;4.43;;;1.38;;
41514;SDS011;27247;48.020;16.720;2022-07-17T23:17:58;3.47;;;1.47;;
41514;SDS011;27247;48.020;16.720;2022-07-17T23:22:09;2.78;;;1.33;;
41514;SDS011;27247;48.020;16.720;2022-07-17T23:26:19;3.10;;;1.15;;
41514;SDS011;27247;48.020;16.720;2022-07-17T23:30:30;2.87;;;1.20;;
41514;SDS011;27247;48.020;16.720;2022-07-17T23:34:40;7.43;;;1.38;;
41514;SDS011;27247;48.020;16.720;2022-07-17T23:38:51;2.87;;;1.70;;
41514;SDS011;27247;48.020;16.720;2022-07-17T23:43:01;4.60;;;1.40;;
41514;SDS011;27247;48.020;16.720;2022-07-17T23:47:11;3.75;;;1.50;;
41514;SDS011;27247;48.020;16.720;2022-07-17T23:51:22;4.45;;;1.20;;
41514;SDS011;27247;48.020;16.720;2022-07-17T23:55:32;4.37;;;1.33;;
41514;SDS011;27247;48.020;16.720;2022-07-17T23:59:42;4.25;;;1.25;;
